createdAt,value
2023-01-06T00:00:43.973Z,4.35
2023-01-06T00:03:12.252Z,4.63
2023-01-06T00:05:40.431Z,3.70
2023-01-06T00:08:08.429Z,3.40
2023-01-06T00:10:37.915Z,3.72
2023-01-06T00:13:07.213Z,3.70
2023-01-06T00:15:38.052Z,4.13
2023-01-06T00:18:06.205Z,3.53
2023-01-06T00:20:34.688Z,3.70
2023-01-06T00:23:02.673Z,4.15
2023-01-06T00:25:30.857Z,3.00
2023-01-06T00:27:59.066Z,4.28
2023-01-06T00:30:28.415Z,5.43
2023-01-06T00:32:56.936Z,3.72
2023-01-06T00:35:24.951Z,3.10
2023-01-06T00:37:52.927Z,3.38
2023-01-06T00:40:21.016Z,3.72
2023-01-06T00:42:49.015Z,4.00
2023-01-06T00:45:17.345Z,4.20
2023-01-06T00:47:46.689Z,3.33
2023-01-06T00:50:14.819Z,4.57
2023-01-06T00:52:42.994Z,3.85
2023-01-06T00:55:11.387Z,4.15
2023-01-06T00:57:40.776Z,3.55
2023-01-06T01:00:10.483Z,4.32
2023-01-06T01:02:38.616Z,2.83
2023-01-06T01:05:08.779Z,3.13
2023-01-06T01:07:37.086Z,3.22
2023-01-06T01:10:05.644Z,2.67
2023-01-06T01:12:33.599Z,2.50
2023-01-06T01:15:01.825Z,2.42
2023-01-06T01:17:31.379Z,2.88
2023-01-06T01:20:00.967Z,2.30
2023-01-06T01:22:31.936Z,2.08
2023-01-06T01:24:59.913Z,2.10
2023-01-06T01:27:28.186Z,3.10
2023-01-06T01:29:56.163Z,2.25
2023-01-06T01:32:24.206Z,3.22
2023-01-06T01:34:52.164Z,2.63
2023-01-06T01:37:20.210Z,2.35
2023-01-06T01:39:49.720Z,2.17
2023-01-06T01:42:19.586Z,2.13
2023-01-06T01:45:01.981Z,2.60
2023-01-06T01:50:01.582Z,1.92
2023-01-06T01:52:29.732Z,2.45
2023-01-06T01:54:59.222Z,2.70
2023-01-06T01:57:32.603Z,2.40
2023-01-06T02:00:01.456Z,1.95
2023-01-06T02:02:31.234Z,2.22
2023-01-06T02:05:00.246Z,2.58
2023-01-06T02:07:28.464Z,2.30
2023-01-06T02:10:03.728Z,2.45
2023-01-06T02:12:31.906Z,2.30
2023-01-06T02:14:59.960Z,2.40
2023-01-06T02:17:50.801Z,2.97
2023-01-06T02:20:28.803Z,2.17
2023-01-06T02:23:31.981Z,3.10
2023-01-06T02:26:41.346Z,2.53
2023-01-06T02:29:43.105Z,2.15
2023-01-06T02:32:23.302Z,2.20
2023-01-06T02:34:59.593Z,2.15
2023-01-06T02:37:39.746Z,2.05
2023-01-06T02:40:22.148Z,2.58
2023-01-06T02:45:24.099Z,2.88
2023-01-06T02:47:59.272Z,2.72
2023-01-06T02:50:33.980Z,2.88
2023-01-06T02:53:07.753Z,3.58
2023-01-06T02:55:38.134Z,3.80
2023-01-06T02:58:08.143Z,3.08
2023-01-06T03:00:37.710Z,2.88
2023-01-06T03:03:11.144Z,3.25
2023-01-06T03:05:39.466Z,3.17
2023-01-06T03:08:10.177Z,2.95
2023-01-06T03:10:39.195Z,2.95
2023-01-06T03:13:12.032Z,3.30
2023-01-06T03:15:40.215Z,3.45
2023-01-06T03:18:09.640Z,3.17
2023-01-06T03:20:37.725Z,3.78
2023-01-06T03:23:06.149Z,3.30
2023-01-06T03:25:34.216Z,3.22
2023-01-06T03:28:02.338Z,3.63
2023-01-06T03:30:35.217Z,3.83
2023-01-06T03:33:08.399Z,3.03
2023-01-06T03:35:57.592Z,2.88
2023-01-06T03:38:33.409Z,3.60
2023-01-06T03:41:06.384Z,2.75
2023-01-06T03:43:37.933Z,3.08
2023-01-06T03:46:18.390Z,4.35
2023-01-06T03:48:54.284Z,3.17
2023-01-06T03:51:32.322Z,3.65
2023-01-06T03:54:04.892Z,3.72
2023-01-06T03:56:37.592Z,4.15
2023-01-06T03:59:07.893Z,3.17
2023-01-06T04:01:36.333Z,2.95
2023-01-06T04:04:04.727Z,3.58
2023-01-06T04:06:34.176Z,3.58
2023-01-06T04:09:02.253Z,3.67
2023-01-06T04:11:47.704Z,4.15
2023-01-06T04:14:15.680Z,4.00
2023-01-06T04:16:43.660Z,4.95
2023-01-06T04:19:11.814Z,4.53
2023-01-06T04:21:41.187Z,4.88
2023-01-06T04:24:09.300Z,4.85
2023-01-06T04:26:37.413Z,5.10
2023-01-06T04:29:05.822Z,5.47
2023-01-06T04:31:35.507Z,5.72
2023-01-06T04:34:04.989Z,6.38
2023-01-06T04:36:33.075Z,5.88
2023-01-06T04:39:02.423Z,7.18
2023-01-06T04:41:32.165Z,6.25
2023-01-06T04:44:00.254Z,6.18
2023-01-06T04:46:28.361Z,6.63
2023-01-06T04:48:56.751Z,7.60
2023-01-06T04:51:24.763Z,7.20
2023-01-06T04:53:52.798Z,8.77
2023-01-06T04:56:22.254Z,8.07
2023-01-06T04:58:50.261Z,7.90
2023-01-06T05:01:18.382Z,8.27
2023-01-06T05:03:46.410Z,8.65
2023-01-06T05:06:16.097Z,7.85
2023-01-06T05:08:44.931Z,8.45
2023-01-06T05:11:15.294Z,9.20
2023-01-06T05:13:44.892Z,9.18
2023-01-06T05:16:17.274Z,8.48
2023-01-06T05:18:45.473Z,9.93
2023-01-06T05:21:13.798Z,9.00
2023-01-06T05:23:41.869Z,9.52
2023-01-06T05:26:11.385Z,9.43
2023-01-06T05:28:39.443Z,9.55
2023-01-06T05:31:10.529Z,9.82
2023-01-06T05:33:38.789Z,9.68
2023-01-06T05:36:09.197Z,8.90
2023-01-06T05:38:37.469Z,9.05
2023-01-06T05:41:05.755Z,8.77
2023-01-06T05:43:34.999Z,9.25
2023-01-06T05:46:06.358Z,8.95
2023-01-06T05:48:36.197Z,9.20
2023-01-06T05:51:04.508Z,9.82
2023-01-06T05:53:33.734Z,9.43
2023-01-06T05:56:02.425Z,9.75
2023-01-06T05:58:32.979Z,9.60
2023-01-06T06:01:01.495Z,8.82
2023-01-06T06:03:29.623Z,11.95
2023-01-06T06:06:03.200Z,12.38
2023-01-06T06:08:31.218Z,12.00
2023-01-06T06:11:03.283Z,10.82
2023-01-06T06:13:33.509Z,10.70
2023-01-06T06:16:06.343Z,9.75
2023-01-06T06:18:34.584Z,10.82
2023-01-06T06:21:04.849Z,8.98
2023-01-06T06:23:34.836Z,8.10
2023-01-06T06:26:03.154Z,10.05
2023-01-06T06:28:31.252Z,9.38
2023-01-06T06:31:04.820Z,10.18
2023-01-06T06:33:33.388Z,8.15
2023-01-06T06:36:02.333Z,8.05
2023-01-06T06:38:31.737Z,7.15
2023-01-06T06:40:59.813Z,7.05
2023-01-06T06:43:28.209Z,7.68
2023-01-06T06:45:56.256Z,7.45
2023-01-06T06:48:24.233Z,8.55
2023-01-06T06:50:58.477Z,8.48
2023-01-06T06:53:26.829Z,8.55
2023-01-06T06:55:56.569Z,9.40
2023-01-06T06:58:25.418Z,9.30
2023-01-06T07:00:53.728Z,9.55
2023-01-06T07:03:22.913Z,9.55
2023-01-06T07:05:51.910Z,9.88
2023-01-06T07:08:20.276Z,10.23
2023-01-06T07:10:48.292Z,9.77
2023-01-06T07:13:17.614Z,10.23
2023-01-06T07:15:45.926Z,10.77
2023-01-06T07:18:13.925Z,11.30
2023-01-06T07:20:41.939Z,10.65
2023-01-06T07:23:09.944Z,13.18
2023-01-06T07:25:38.120Z,12.90
2023-01-06T07:28:07.190Z,12.38
2023-01-06T07:30:37.440Z,13.77
2023-01-06T07:33:05.712Z,14.50
2023-01-06T07:35:33.692Z,14.27
2023-01-06T07:38:05.478Z,15.02
2023-01-06T07:40:34.125Z,15.55
2023-01-06T07:43:05.316Z,15.43
2023-01-06T07:45:33.536Z,15.50
2023-01-06T07:48:03.182Z,17.85
2023-01-06T07:50:31.991Z,15.70
2023-01-06T07:53:00.737Z,16.73
2023-01-06T07:55:28.922Z,17.42
2023-01-06T07:57:57.219Z,18.23
2023-01-06T08:00:25.290Z,20.63
2023-01-06T08:02:53.507Z,17.90
2023-01-06T08:05:22.838Z,18.83
2023-01-06T08:07:50.855Z,19.50
2023-01-06T08:10:18.922Z,19.05
2023-01-06T08:12:47.038Z,19.55
2023-01-06T08:15:15.010Z,21.13
2023-01-06T08:17:43.133Z,21.40
2023-01-06T08:20:11.372Z,19.10
2023-01-06T08:22:40.713Z,20.02
2023-01-06T08:25:09.687Z,21.48
2023-01-06T08:27:37.754Z,22.17
2023-01-06T08:30:07.032Z,21.60
2023-01-06T08:32:35.027Z,21.70
2023-01-06T08:35:03.400Z,21.70
2023-01-06T08:37:31.496Z,21.50
2023-01-06T08:40:00.995Z,22.92
2023-01-06T08:42:29.171Z,22.23
2023-01-06T08:44:57.307Z,21.67
2023-01-06T08:47:25.298Z,21.50
2023-01-06T08:49:53.231Z,23.58
2023-01-06T08:52:21.305Z,21.52
2023-01-06T08:54:49.363Z,23.27
2023-01-06T08:57:18.663Z,25.05
2023-01-06T08:59:46.651Z,22.83
2023-01-06T09:02:14.648Z,23.25
2023-01-06T09:04:42.738Z,23.02
2023-01-06T09:07:10.892Z,23.38
2023-01-06T09:09:38.940Z,21.73
2023-01-06T09:12:08.119Z,20.95
2023-01-06T09:14:37.516Z,22.48
2023-01-06T09:17:05.517Z,22.35
2023-01-06T09:19:33.539Z,21.83
2023-01-06T09:22:01.470Z,21.13
2023-01-06T09:24:29.523Z,19.90
2023-01-06T09:26:57.482Z,21.83
2023-01-06T09:29:25.954Z,21.42
2023-01-06T09:31:55.624Z,20.45
2023-01-06T09:34:23.705Z,19.98
2023-01-06T09:36:51.776Z,19.98
2023-01-06T09:39:20.227Z,20.83
2023-01-06T09:42:22.130Z,19.00
2023-01-06T09:44:53.814Z,18.23
2023-01-06T09:47:26.358Z,18.45
2023-01-06T09:49:58.318Z,16.85
2023-01-06T09:52:30.200Z,16.67
2023-01-06T09:55:01.318Z,16.33
2023-01-06T09:57:33.211Z,17.88
2023-01-06T10:00:02.730Z,18.42
2023-01-06T10:02:36.156Z,17.15
2023-01-06T10:05:04.583Z,15.95
2023-01-06T10:07:39.423Z,14.95
2023-01-06T10:10:17.499Z,13.65
2023-01-06T10:12:54.326Z,13.18
2023-01-06T10:15:27.807Z,13.68
2023-01-06T10:18:07.951Z,13.07
2023-01-06T10:20:52.956Z,15.15
2023-01-06T10:23:52.433Z,14.23
2023-01-06T10:26:28.458Z,12.40
2023-01-06T10:28:58.973Z,12.35
2023-01-06T10:31:33.029Z,11.80
2023-01-06T10:34:03.126Z,13.45
2023-01-06T10:36:33.034Z,12.25
2023-01-06T10:39:02.350Z,12.68
2023-01-06T10:41:41.459Z,13.32
2023-01-06T10:44:10.440Z,11.90
2023-01-06T10:46:38.882Z,12.68
2023-01-06T10:49:15.578Z,11.80
2023-01-06T10:51:45.666Z,11.40
2023-01-06T10:54:15.663Z,12.75
2023-01-06T10:56:46.790Z,11.05
2023-01-06T10:59:14.974Z,10.15
2023-01-06T11:01:51.030Z,10.55
2023-01-06T11:04:21.537Z,11.40
2023-01-06T11:06:55.004Z,9.82
2023-01-06T11:09:27.499Z,10.27
2023-01-06T11:11:57.116Z,11.25
2023-01-06T11:14:27.827Z,10.73
2023-01-06T11:16:58.417Z,11.13
2023-01-06T11:19:35.555Z,11.27
2023-01-06T11:22:04.247Z,10.93
2023-01-06T11:24:32.726Z,11.60
2023-01-06T11:27:03.709Z,12.32
2023-01-06T11:29:34.539Z,12.02
2023-01-06T11:32:05.174Z,11.88
2023-01-06T11:34:34.865Z,11.75
2023-01-06T11:37:03.302Z,10.93
2023-01-06T11:39:34.312Z,12.20
2023-01-06T11:42:13.292Z,11.20
2023-01-06T11:44:41.980Z,10.38
2023-01-06T11:47:14.201Z,10.45
2023-01-06T11:52:21.836Z,9.10
2023-01-06T11:54:59.669Z,8.48
2023-01-06T11:57:32.285Z,8.55
2023-01-06T12:00:07.205Z,6.95
2023-01-06T12:02:42.853Z,6.65
2023-01-06T12:05:19.472Z,5.93
2023-01-06T12:07:49.424Z,6.35
2023-01-06T12:10:21.206Z,4.53
2023-01-06T12:12:49.742Z,4.68
2023-01-06T12:15:18.748Z,5.00
2023-01-06T12:17:51.186Z,5.05
2023-01-06T12:22:50.640Z,4.03
2023-01-06T12:25:21.068Z,4.60
2023-01-06T12:27:53.268Z,4.53
2023-01-06T12:30:27.533Z,4.00
2023-01-06T12:32:57.713Z,3.22
2023-01-06T12:35:30.259Z,2.85
2023-01-06T12:38:02.055Z,2.60
2023-01-06T12:40:33.709Z,2.47
2023-01-06T12:43:06.037Z,2.20
2023-01-06T12:48:08.637Z,2.63
2023-01-06T12:50:41.292Z,1.98
2023-01-06T12:53:20.231Z,1.88
2023-01-06T12:56:00.117Z,2.28
2023-01-06T12:58:36.187Z,1.80
2023-01-06T13:01:08.682Z,2.65
2023-01-06T13:03:53.988Z,1.55
2023-01-06T13:06:31.383Z,1.73
2023-01-06T13:09:10.296Z,1.65
2023-01-06T13:11:52.034Z,1.70
2023-01-06T13:14:25.349Z,1.50
2023-01-06T13:16:57.652Z,1.35
2023-01-06T13:22:01.427Z,2.13
2023-01-06T13:24:57.229Z,1.42
2023-01-06T13:27:34.808Z,1.05
2023-01-06T13:30:13.780Z,1.30
2023-01-06T13:32:51.110Z,1.35
2023-01-06T13:35:33.423Z,0.98
2023-01-06T13:38:09.399Z,1.20
2023-01-06T13:40:39.644Z,1.30
2023-01-06T13:43:11.897Z,0.95
2023-01-06T13:45:42.238Z,1.10
2023-01-06T13:48:12.382Z,1.17
2023-01-06T13:50:40.628Z,1.25
2023-01-06T13:53:16.516Z,1.23
2023-01-06T13:55:44.660Z,0.80
2023-01-06T13:58:35.058Z,1.20
2023-01-06T14:01:07.875Z,0.90
2023-01-06T14:03:36.691Z,1.30
2023-01-06T14:06:05.277Z,1.10
2023-01-06T14:08:38.782Z,1.02
2023-01-06T14:11:21.215Z,0.90
2023-01-06T14:13:51.925Z,1.35
2023-01-06T14:16:20.181Z,1.50
2023-01-06T14:18:51.742Z,1.45
2023-01-06T14:21:24.635Z,1.17
2023-01-06T14:24:00.412Z,1.40
2023-01-06T14:26:58.300Z,1.48
2023-01-06T14:30:06.827Z,1.25
2023-01-06T14:33:11.600Z,1.52
2023-01-06T14:35:44.105Z,1.30
2023-01-06T14:40:54.304Z,1.17
2023-01-06T14:43:48.246Z,1.35
2023-01-06T14:46:19.253Z,1.45
2023-01-06T14:48:52.999Z,1.40
2023-01-06T14:51:23.188Z,1.45
2023-01-06T14:54:04.453Z,1.30
2023-01-06T14:56:34.530Z,1.50
2023-01-06T14:59:10.607Z,2.03
2023-01-06T15:01:42.594Z,1.30
2023-01-06T15:07:03.484Z,1.60
2023-01-06T15:09:32.610Z,1.13
2023-01-06T15:12:04.781Z,1.90
2023-01-06T15:14:34.852Z,1.52
2023-01-06T15:17:06.340Z,1.45
2023-01-06T15:19:36.216Z,1.37
2023-01-06T15:22:08.805Z,1.58
2023-01-06T15:24:39.873Z,1.90
2023-01-06T15:27:13.070Z,1.40
2023-01-06T15:29:50.560Z,1.88
2023-01-06T15:32:23.855Z,1.60
2023-01-06T15:34:52.932Z,1.65
2023-01-06T15:37:25.320Z,1.50
2023-01-06T15:39:54.275Z,1.40
2023-01-06T15:42:29.526Z,1.50
2023-01-06T15:44:58.788Z,1.75
2023-01-06T15:47:36.173Z,1.30
2023-01-06T15:50:09.730Z,1.50
2023-01-06T15:52:40.910Z,1.40
2023-01-06T15:55:21.666Z,1.70
2023-01-06T15:57:56.838Z,1.75
2023-01-06T16:00:28.463Z,1.85
2023-01-06T16:02:56.888Z,2.03
2023-01-06T16:05:42.288Z,2.00
2023-01-06T16:08:21.349Z,2.00
2023-01-06T16:10:49.709Z,1.90
2023-01-06T16:13:35.282Z,2.03
2023-01-06T16:16:09.835Z,1.80
2023-01-06T16:18:38.862Z,1.60
2023-01-06T16:21:17.799Z,2.08
2023-01-06T16:23:54.254Z,1.98
2023-01-06T16:26:23.941Z,2.08
2023-01-06T16:28:55.073Z,1.90
2023-01-06T16:31:31.914Z,2.20
2023-01-06T16:34:16.885Z,2.38
2023-01-06T16:36:45.877Z,2.20
2023-01-06T16:39:15.590Z,2.20
2023-01-06T16:42:34.196Z,2.45
2023-01-06T16:45:10.079Z,2.50
2023-01-06T16:47:39.727Z,2.83
2023-01-06T16:50:22.714Z,2.85
2023-01-06T16:53:10.277Z,2.72
2023-01-06T16:55:40.142Z,3.83
2023-01-06T16:58:15.022Z,2.58
2023-01-06T17:00:51.236Z,3.33
2023-01-06T17:03:21.876Z,4.35
2023-01-06T17:05:52.116Z,2.65
2023-01-06T17:08:26.633Z,3.35
2023-01-06T17:10:54.958Z,3.13
2023-01-06T17:13:46.092Z,3.90
2023-01-06T17:16:18.136Z,3.83
2023-01-06T17:18:51.010Z,3.83
2023-01-06T17:21:21.216Z,3.60
2023-01-06T17:23:52.105Z,3.92
2023-01-06T17:26:22.600Z,4.18
2023-01-06T17:28:52.882Z,3.85
2023-01-06T17:31:30.131Z,4.07
2023-01-06T17:34:12.155Z,3.63
2023-01-06T17:36:42.276Z,3.85
2023-01-06T17:39:21.154Z,3.83
2023-01-06T17:41:49.408Z,3.95
2023-01-06T17:44:20.536Z,4.22
2023-01-06T17:46:50.893Z,3.47
2023-01-06T17:49:35.376Z,4.85
2023-01-06T17:52:19.584Z,4.00
2023-01-06T17:55:14.796Z,4.57
2023-01-06T17:57:47.208Z,3.92
2023-01-06T18:00:24.289Z,4.22
2023-01-06T18:02:58.367Z,4.07
2023-01-06T18:06:06.184Z,4.47
2023-01-06T18:08:36.776Z,3.70
2023-01-06T18:11:26.421Z,4.10
2023-01-06T18:13:54.786Z,4.05
2023-01-06T18:16:31.470Z,4.05
2023-01-06T18:19:07.824Z,4.22
2023-01-06T18:21:39.465Z,4.20
2023-01-06T18:24:16.516Z,4.13
2023-01-06T18:26:49.419Z,4.28
2023-01-06T18:29:20.747Z,4.05
2023-01-06T18:31:51.114Z,3.95
2023-01-06T18:34:42.307Z,4.78
2023-01-06T18:37:10.357Z,3.75
2023-01-06T18:39:40.945Z,4.10
2023-01-06T18:42:18.842Z,4.13
2023-01-06T18:44:47.749Z,4.32
2023-01-06T18:47:17.916Z,4.05
2023-01-06T18:49:47.824Z,3.85
2023-01-06T18:52:32.473Z,4.00
2023-01-06T18:55:01.147Z,4.53
2023-01-06T18:57:33.123Z,3.80
2023-01-06T19:00:14.059Z,4.07
2023-01-06T19:02:42.406Z,3.60
2023-01-06T19:05:13.459Z,4.30
2023-01-06T19:07:41.953Z,4.60
2023-01-06T19:10:26.764Z,4.50
2023-01-06T19:13:00.296Z,4.93
2023-01-06T19:15:28.564Z,5.22
2023-01-06T19:17:56.974Z,5.03
2023-01-06T19:20:29.037Z,4.93
2023-01-06T19:22:57.772Z,5.90
2023-01-06T19:25:31.431Z,5.78
2023-01-06T19:28:00.129Z,5.65
2023-01-06T19:30:35.354Z,5.28
2023-01-06T19:33:23.968Z,6.35
2023-01-06T19:36:00.073Z,5.53
2023-01-06T19:38:30.635Z,5.88
2023-01-06T19:41:03.275Z,5.35
2023-01-06T19:43:33.853Z,5.32
2023-01-06T19:46:03.982Z,5.60
2023-01-06T19:48:37.976Z,5.55
2023-01-06T19:51:21.988Z,5.50
2023-01-06T19:53:52.826Z,5.10
2023-01-06T19:56:24.049Z,5.32
2023-01-06T19:58:53.617Z,5.90
2023-01-06T20:01:23.421Z,5.53
2023-01-06T20:03:53.812Z,6.75
2023-01-06T20:06:23.619Z,5.53
2023-01-06T20:08:53.537Z,5.97
2023-01-06T20:11:23.059Z,5.90
2023-01-06T20:13:52.271Z,7.00
2023-01-06T20:16:20.438Z,6.50
2023-01-06T20:18:50.603Z,7.13
2023-01-06T20:21:18.696Z,5.85
2023-01-06T20:23:50.127Z,6.05
2023-01-06T20:26:18.217Z,6.60
2023-01-06T20:28:47.915Z,6.57
2023-01-06T20:31:15.990Z,6.65
2023-01-06T20:33:44.067Z,7.00
2023-01-06T20:36:16.812Z,7.07
2023-01-06T20:38:45.032Z,6.88
2023-01-06T20:41:15.796Z,6.53
2023-01-06T20:43:43.820Z,5.90
2023-01-06T20:46:13.012Z,6.57
2023-01-06T20:48:41.628Z,6.25
2023-01-06T20:51:11.628Z,6.68
2023-01-06T20:53:39.625Z,6.90
2023-01-06T20:56:12.099Z,7.20
2023-01-06T21:01:09.712Z,7.10
2023-01-06T21:03:39.263Z,7.07
2023-01-06T21:06:08.843Z,6.57
2023-01-06T21:08:36.911Z,7.00
2023-01-06T21:11:05.242Z,6.60
2023-01-06T21:13:33.328Z,6.60
2023-01-06T21:16:07.449Z,6.10
2023-01-06T21:18:36.856Z,7.50
2023-01-06T21:21:05.755Z,6.68
2023-01-06T21:23:35.429Z,7.53
2023-01-06T21:26:03.468Z,7.45
2023-01-06T21:28:31.867Z,6.90
2023-01-06T21:31:00.017Z,6.95
2023-01-06T21:33:29.801Z,7.28
2023-01-06T21:35:59.413Z,7.82
2023-01-06T21:38:29.179Z,7.45
2023-01-06T21:41:23.772Z,7.15
2023-01-06T21:43:51.505Z,8.10
2023-01-06T21:46:19.707Z,8.00
2023-01-06T21:48:49.574Z,8.68
2023-01-06T21:51:18.621Z,9.02
2023-01-06T21:53:47.522Z,9.13
2023-01-06T21:56:17.325Z,9.10
2023-01-06T21:58:45.627Z,8.18
2023-01-06T22:01:14.186Z,8.40
2023-01-06T22:03:42.800Z,8.68
2023-01-06T22:06:16.281Z,8.90
2023-01-06T22:08:44.525Z,8.85
2023-01-06T22:11:13.208Z,8.48
2023-01-06T22:13:41.821Z,8.65
2023-01-06T22:16:10.319Z,9.18
2023-01-06T22:18:38.461Z,8.23
2023-01-06T22:21:08.441Z,9.00
2023-01-06T22:23:38.254Z,8.57
2023-01-06T22:26:08.750Z,8.40
2023-01-06T22:28:37.203Z,8.02
2023-01-06T22:31:05.650Z,8.65
2023-01-06T22:33:34.091Z,8.18
2023-01-06T22:36:04.153Z,8.30
2023-01-06T22:38:35.004Z,7.30
2023-01-06T22:41:04.948Z,8.45
2023-01-06T22:43:32.986Z,8.15
2023-01-06T22:46:03.585Z,7.40
2023-01-06T22:48:33.075Z,7.38
2023-01-06T22:51:03.578Z,7.40
2023-01-06T22:53:32.853Z,7.22
2023-01-06T22:56:02.991Z,8.15
2023-01-06T22:58:35.250Z,8.13
2023-01-06T23:01:03.550Z,8.20
2023-01-06T23:03:32.061Z,7.20
2023-01-06T23:06:01.962Z,7.57
2023-01-06T23:08:31.206Z,7.85
2023-01-06T23:11:02.259Z,7.50
2023-01-06T23:13:33.769Z,8.13
2023-01-06T23:16:03.527Z,7.60
2023-01-06T23:18:34.039Z,8.57
2023-01-06T23:21:03.582Z,8.65
2023-01-06T23:23:33.108Z,8.20
2023-01-06T23:26:04.993Z,8.23
2023-01-06T23:28:35.206Z,8.63
2023-01-06T23:31:05.141Z,7.75
2023-01-06T23:33:33.644Z,9.68
2023-01-06T23:36:03.066Z,7.55
2023-01-06T23:38:31.487Z,7.72
2023-01-06T23:41:03.743Z,7.55
2023-01-06T23:43:37.253Z,7.60
2023-01-06T23:46:07.544Z,8.20
2023-01-06T23:48:36.875Z,7.47
2023-01-06T23:51:06.152Z,6.97
2023-01-06T23:53:36.191Z,7.40
2023-01-06T23:56:06.608Z,8.18
2023-01-06T23:58:37.529Z,6.78
